Decoded Metar for LFGA (COLMAR in FRANCE) (IATA:CMR) | Meteo·Mobile Aviation Weather
aviador You're here:

LFGA Decoded Metar

COLMAR in FRANCE
Report Time2019-07-19 19:00:00
UTC Time2019-07-19 19:08:03
Flight Rules vfr VFR
Wind020° at 05 kt
W.Decomp.*RWY 01: 4.9 kt HW 0.8 kt RCW
Visibility9999 m
Phenomena:N/A
Clouds:N/A
Expected CloudBase > 4,000 ft AGL from Temp-Dew spread
CeilingNone
Temp25°C
Dew Point15°C (54% RH)
AAT24.8°C
QNH1014 hPa
Raw Report
METAR LFGA 191900Z AUTO 02005KT CAVOK 25/15 Q1014=

Extra information for LFGA:More info

Metar Taf Metar & Taf Last 4 Metars F.Rules Stats Wind Profile Meteogram Temp Stats Airport Information Weather charts Add Link Nearby VenuesMetar ALERT Operation Metar Decoded Social comments